Time;durP1;ratioP1;P1;durP2;ratioP2;P2;SDS_P1;SDS_P2;PMS_P1;PMS_P2;Temp;Humidity;BMP_temperature;BMP_pressure;BME280_temperature;BME280_humidity;BME280_pressure;Samples;Min_cycle;Max_cycle;Signal;HPM_P1;HPM_P2
2022/09/25 00:01:47;;;;;;;11.88;2.00;;;13.60;99.90;;;;;;5016115;28;20096;-71
2022/09/25 00:04:13;;;;;;;11.85;2.45;;;13.50;99.90;;;;;;5016096;28;20042;-70
2022/09/25 00:06:40;;;;;;;22.00;2.72;;;13.60;99.90;;;;;;5015707;28;20034;-70
2022/09/25 00:09:07;;;;;;;11.32;1.73;;;13.60;99.90;;;;;;5016353;28;20026;-70
2022/09/25 00:11:33;;;;;;;11.95;2.13;;;13.60;99.90;;;;;;5015941;28;20509;-69
2022/09/25 00:14:00;;;;;;;12.25;1.77;;;13.60;99.90;;;;;;4998313;28;20045;-69
2022/09/25 00:16:29;;;;;;;8.65;2.05;;;13.60;99.90;;;;;;5015614;28;20018;-69
2022/09/25 00:21:43;;;;;;;12.52;2.50;;;13.60;99.90;;;;;;5015828;28;20038;-69
2022/09/25 00:24:12;;;;;;;16.95;2.67;;;13.60;99.90;;;;;;5015585;28;20104;-69
2022/09/25 00:26:41;;;;;;;11.20;2.22;;;13.60;99.90;;;;;;5013658;28;20033;-69
2022/09/25 00:29:12;;;;;;;12.55;2.53;;;13.70;99.90;;;;;;5015573;28;20080;-69
2022/09/25 00:31:38;;;;;;;14.70;2.50;;;13.60;99.90;;;;;;5014126;28;20034;-69
2022/09/25 00:34:04;;;;;;;10.05;2.20;;;13.40;99.90;;;;;;5015401;28;20018;-69
2022/09/25 00:36:32;;;;;;;9.93;2.00;;;13.30;99.90;;;;;;5015456;28;20058;-69
2022/09/25 00:38:58;;;;;;;19.85;2.75;;;13.40;99.90;;;;;;5015590;28;20030;-70
2022/09/25 00:41:26;;;;;;;11.80;2.15;;;13.40;99.90;;;;;;5014205;28;20034;-69
2022/09/25 00:43:56;;;;;;;14.35;2.63;;;13.50;99.90;;;;;;5015255;28;20065;-69
2022/09/25 00:46:37;;;;;;;10.10;2.17;;;13.60;99.90;;;;;;5014964;28;20383;-69
2022/09/25 00:49:11;;;;;;;12.73;2.17;;;13.70;99.90;;;;;;5002578;28;20030;-69
2022/09/25 00:51:47;;;;;;;13.95;2.03;;;13.60;99.90;;;;;;5015117;28;20022;-69
2022/09/25 00:54:21;;;;;;;15.65;3.42;;;13.50;99.90;;;;;;5014171;28;20096;-70
2022/09/25 00:56:49;;;;;;;14.88;2.25;;;13.50;99.90;;;;;;5015098;28;20386;-69
2022/09/25 00:59:19;;;;;;;13.20;2.03;;;13.50;99.90;;;;;;5013471;28;20447;-69
2022/09/25 01:01:46;;;;;;;12.40;2.75;;;13.30;99.90;;;;;;5014977;28;20461;-69
2022/09/25 01:04:13;;;;;;;9.63;2.50;;;13.40;99.90;;;;;;5014934;28;20052;-69
2022/09/25 01:06:40;;;;;;;14.25;2.47;;;13.50;99.90;;;;;;5014953;28;20490;-69
2022/09/25 01:09:05;;;;;;;11.00;2.75;;;13.40;99.90;;;;;;5014985;28;20021;-69
2022/09/25 01:11:32;;;;;;;14.98;2.72;;;13.40;99.90;;;;;;5013664;28;20038;-69
2022/09/25 01:14:00;;;;;;;13.32;2.70;;;13.40;99.90;;;;;;5014564;28;20037;-70
2022/09/25 01:16:58;;;;;;;10.82;2.20;;;13.30;99.90;;;;;;5014878;28;20184;-69
2022/09/25 01:19:23;;;;;;;12.23;2.50;;;13.30;99.90;;;;;;5013517;28;20525;-69
2022/09/25 01:22:43;;;;;;;13.65;2.30;;;13.20;99.90;;;;;;5014700;28;20021;-69
2022/09/25 01:25:34;;;;;;;8.63;1.77;;;13.30;99.90;;;;;;4938452;29;20460;-69
2022/09/25 01:28:16;;;;;;;22.00;4.05;;;13.40;99.90;;;;;;5014141;28;20057;-69
2022/09/25 01:30:49;;;;;;;19.90;2.42;;;13.30;99.90;;;;;;5014524;28;20497;-69
2022/09/25 01:33:28;;;;;;;18.45;3.13;;;13.30;99.90;;;;;;5013304;28;20593;-69
2022/09/25 01:36:09;;;;;;;12.93;2.78;;;13.20;99.90;;;;;;5013236;28;20022;-69
2022/09/25 01:38:45;;;;;;;14.38;2.90;;;13.30;99.90;;;;;;5001120;28;20037;-69
2022/09/25 01:41:16;;;;;;;9.80;4.10;;;13.20;99.90;;;;;;5014426;28;20505;-70
2022/09/25 01:43:59;;;;;;;14.20;2.90;;;13.10;99.90;;;;;;5014347;28;20502;-69
2022/09/25 01:46:32;;;;;;;13.98;3.40;;;12.90;99.90;;;;;;5014182;28;20461;-68
2022/09/25 01:49:21;;;;;;;15.27;2.97;;;12.90;99.90;;;;;;5014415;28;20038;-68
2022/09/25 01:51:52;;;;;;;24.02;3.22;;;13.00;99.90;;;;;;5014011;28;20037;-69
2022/09/25 01:54:31;;;;;;;13.67;3.97;;;13.00;99.90;;;;;;5014273;28;20032;-70
2022/09/25 01:57:11;;;;;;;10.50;2.50;;;12.90;99.90;;;;;;5013343;28;20030;-69
2022/09/25 02:00:00;;;;;;;9.68;2.88;;;13.00;99.90;;;;;;5014093;28;20167;-69
2022/09/25 02:02:33;;;;;;;9.32;2.95;;;13.00;99.90;;;;;;5013916;28;20034;-69
2022/09/25 02:05:12;;;;;;;14.90;2.30;;;13.00;99.90;;;;;;5013777;28;20047;-69
2022/09/25 02:07:49;;;;;;;11.25;2.53;;;12.90;99.90;;;;;;5013765;28;20356;-69
2022/09/25 02:10:24;;;;;;;13.35;2.90;;;12.90;99.90;;;;;;5012638;28;20117;-69
2022/09/25 02:12:54;;;;;;;7.10;2.40;;;12.70;99.90;;;;;;5013652;28;20018;-69
2022/09/25 02:15:34;;;;;;;17.15;3.53;;;12.90;99.90;;;;;;5013634;28;20034;-68
2022/09/25 02:21:17;;;;;;;15.30;3.00;;;12.90;99.90;;;;;;5013631;28;20098;-69
2022/09/25 02:24:10;;;;;;;14.15;3.40;;;12.70;99.90;;;;;;5013300;28;20041;-69
2022/09/25 02:26:37;;;;;;;15.55;2.42;;;12.60;99.90;;;;;;5013179;28;20072;-69
2022/09/25 02:29:03;;;;;;;15.18;3.15;;;12.70;99.90;;;;;;5013298;28;20030;-69
2022/09/25 02:31:39;;;;;;;15.77;3.55;;;12.60;99.90;;;;;;5014007;28;20041;-70
2022/09/25 02:34:05;;;;;;;16.08;3.75;;;12.60;99.90;;;;;;5013273;28;20048;-69
2022/09/25 02:36:32;;;;;;;15.70;3.00;;;12.40;99.90;;;;;;5013191;28;20060;-69
2022/09/25 02:39:01;;;;;;;10.32;3.25;;;12.30;99.90;;;;;;5013355;28;20037;-69
2022/09/25 02:41:39;;;;;;;12.20;3.40;;;12.30;99.90;;;;;;5013091;28;20044;-69
2022/09/25 02:44:20;;;;;;;11.55;2.78;;;12.20;99.90;;;;;;5013175;28;20038;-69
2022/09/25 02:47:02;;;;;;;15.20;3.30;;;12.20;99.90;;;;;;5011675;28;20065;-69
2022/09/25 02:49:50;;;;;;;;;;;12.10;99.90;;;;;;5012888;28;20038;-69
2022/09/25 02:52:45;;;;;;;17.73;3.45;;;12.00;99.90;;;;;;5001256;28;19995;-69
2022/09/25 02:55:18;;;;;;;18.65;3.95;;;11.90;99.90;;;;;;4975857;28;20037;-69
2022/09/25 02:58:20;;;;;;;13.82;2.92;;;11.90;99.90;;;;;;5013162;28;20501;-69
2022/09/25 03:00:51;;;;;;;12.77;3.13;;;12.00;99.90;;;;;;5001368;28;20117;-69
2022/09/25 03:03:18;;;;;;;9.85;3.05;;;12.00;99.90;;;;;;5012993;28;20501;-69
2022/09/25 03:05:46;;;;;;;9.93;2.83;;;11.80;99.90;;;;;;5013216;28;20025;-69
2022/09/25 03:10:57;;;;;;;9.70;3.05;;;11.80;99.90;;;;;;5000426;28;20474;-70
2022/09/25 03:13:30;;;;;;;17.95;3.03;;;11.60;99.90;;;;;;5013151;28;20545;-69
2022/09/25 03:16:14;;;;;;;10.43;3.63;;;11.40;99.90;;;;;;5011905;28;20080;-69
2022/09/25 03:18:40;;;;;;;11.35;5.10;;;11.20;99.90;;;;;;5011717;28;20038;-69
2022/09/25 03:21:06;;;;;;;10.20;2.85;;;11.10;99.90;;;;;;5013046;28;20026;-69
2022/09/25 03:23:32;;;;;;;12.30;4.68;;;11.00;99.90;;;;;;5012577;28;20108;-69
2022/09/25 03:25:58;;;;;;;11.10;3.75;;;10.90;99.90;;;;;;5011507;28;20030;-69
2022/09/25 03:28:24;;;;;;;15.98;3.35;;;10.90;99.90;;;;;;5012905;28;20108;-69
2022/09/25 03:31:01;;;;;;;15.90;4.03;;;10.70;99.90;;;;;;5012633;28;20453;-69
2022/09/25 03:33:29;;;;;;;11.40;3.58;;;10.80;99.90;;;;;;5012958;28;20056;-69
2022/09/25 03:36:05;;;;;;;17.08;4.10;;;10.90;99.90;;;;;;5011803;28;20030;-69
2022/09/25 03:38:32;;;;;;;15.15;3.58;;;10.90;99.90;;;;;;5012529;28;20512;-69
2022/09/25 03:40:58;;;;;;;10.75;3.78;;;10.70;99.90;;;;;;5012714;28;20102;-69
2022/09/25 03:43:23;;;;;;;10.95;3.53;;;10.70;99.90;;;;;;5012635;28;20116;-69
2022/09/25 03:45:49;;;;;;;12.25;3.38;;;10.80;99.90;;;;;;5011439;28;20034;-69
2022/09/25 03:48:15;;;;;;;19.92;3.70;;;10.90;99.90;;;;;;5012558;28;20105;-69
2022/09/25 03:50:40;;;;;;;13.80;3.80;;;10.90;99.90;;;;;;5012549;28;20101;-69
2022/09/25 03:53:07;;;;;;;14.68;3.70;;;10.90;99.90;;;;;;5012403;28;20371;-69
2022/09/25 03:55:32;;;;;;;12.20;3.55;;;10.80;99.90;;;;;;5012640;28;20038;-69
2022/09/25 03:57:58;;;;;;;14.18;4.18;;;10.80;99.90;;;;;;5011501;28;20026;-70
2022/09/25 04:00:24;;;;;;;17.02;3.85;;;11.00;99.90;;;;;;5012316;28;20410;-69
2022/09/25 04:02:50;;;;;;;13.55;3.50;;;11.20;99.90;;;;;;5014769;28;20430;-69
2022/09/25 04:05:17;;;;;;;15.95;4.20;;;11.20;99.90;;;;;;5015918;28;20034;-69
2022/09/25 04:07:43;;;;;;;13.52;4.22;;;11.20;99.90;;;;;;5016218;28;20022;-69
2022/09/25 04:10:09;;;;;;;11.15;4.85;;;11.30;99.90;;;;;;5016016;28;20030;-69
2022/09/25 04:12:35;;;;;;;19.65;4.85;;;11.40;99.90;;;;;;5016187;28;20493;-69
2022/09/25 04:15:01;;;;;;;16.27;4.60;;;11.30;99.90;;;;;;5015993;28;20168;-69
2022/09/25 04:17:28;;;;;;;10.95;4.18;;;11.30;99.90;;;;;;5014601;28;20025;-70
2022/09/25 04:19:54;;;;;;;12.63;4.07;;;11.10;99.90;;;;;;5015834;28;20057;-69
2022/09/25 04:22:19;;;;;;;11.05;3.58;;;10.60;99.90;;;;;;5014445;28;20483;-69
2022/09/25 04:24:48;;;;;;;16.83;3.72;;;10.40;99.90;;;;;;5015766;28;20490;-68
2022/09/25 04:27:17;;;;;;;14.77;4.32;;;10.20;99.90;;;;;;5015683;28;20025;-69
2022/09/25 04:29:44;;;;;;;10.52;3.65;;;10.20;99.90;;;;;;5014431;28;20505;-69
2022/09/25 04:34:55;;;;;;;10.10;3.72;;;10.20;99.90;;;;;;5004312;28;20034;-69
2022/09/25 04:37:25;;;;;;;14.38;4.03;;;10.40;99.90;;;;;;5015402;28;20032;-69
2022/09/25 04:39:55;;;;;;;11.50;3.63;;;10.40;99.90;;;;;;5015420;28;20079;-69
2022/09/25 04:42:23;;;;;;;12.93;3.90;;;10.60;99.90;;;;;;5015456;28;20026;-69
2022/09/25 04:44:54;;;;;;;9.57;4.63;;;10.70;99.90;;;;;;5014018;28;20458;-69
2022/09/25 04:47:21;;;;;;;9.45;3.80;;;10.60;99.90;;;;;;5015321;28;20029;-69
2022/09/25 04:49:47;;;;;;;13.02;4.28;;;10.90;99.90;;;;;;5015145;28;20105;-69
2022/09/25 04:52:17;;;;;;;15.32;3.60;;;10.70;99.90;;;;;;5013758;28;20034;-69
2022/09/25 04:54:43;;;;;;;15.13;4.22;;;10.80;99.90;;;;;;5015241;28;20041;-69
2022/09/25 04:57:13;;;;;;;12.30;4.10;;;11.00;99.90;;;;;;5013618;28;20022;-69
2022/09/25 04:59:39;;;;;;;14.00;3.83;;;10.80;99.90;;;;;;5013926;28;20462;-69
2022/09/25 05:02:05;;;;;;;16.67;3.65;;;10.90;99.90;;;;;;5014997;28;20038;-69
2022/09/25 05:04:31;;;;;;;12.85;3.63;;;11.20;99.90;;;;;;5014962;28;20046;-69
2022/09/25 05:06:57;;;;;;;13.40;3.67;;;11.20;99.90;;;;;;5014433;28;20028;-69
2022/09/25 05:09:23;;;;;;;8.55;3.63;;;11.00;99.90;;;;;;5014931;28;20055;-69
2022/09/25 05:11:49;;;;;;;9.93;4.00;;;10.70;99.90;;;;;;5014690;28;20029;-68
2022/09/25 05:14:15;;;;;;;11.85;3.58;;;10.60;99.90;;;;;;5013822;28;20394;-69
2022/09/25 05:16:41;;;;;;;15.25;4.18;;;10.50;99.90;;;;;;5014665;28;20036;-69
2022/09/25 05:19:07;;;;;;;10.30;3.63;;;10.30;99.90;;;;;;5014817;28;20022;-69
2022/09/25 05:21:33;;;;;;;23.10;4.35;;;10.50;99.90;;;;;;5014481;28;20164;-69
2022/09/25 05:23:58;;;;;;;23.48;7.57;;;10.70;99.90;;;;;;5014390;28;20088;-69
2022/09/25 05:26:26;;;;;;;16.70;7.03;;;10.90;99.90;;;;;;5014537;28;20036;-69
2022/09/25 05:28:52;;;;;;;11.63;5.20;;;10.80;99.90;;;;;;5014333;28;20092;-69
2022/09/25 05:31:18;;;;;;;10.63;4.50;;;10.90;99.90;;;;;;5014204;28;20041;-69
2022/09/25 05:33:43;;;;;;;8.02;3.78;;;10.70;99.90;;;;;;5014184;28;20034;-69
2022/09/25 05:36:09;;;;;;;7.40;3.65;;;10.50;99.90;;;;;;5013840;28;20104;-68
2022/09/25 05:38:37;;;;;;;11.48;4.00;;;10.60;99.90;;;;;;5014458;28;20049;-69
2022/09/25 05:41:05;;;;;;;9.35;3.22;;;10.50;99.90;;;;;;5014382;28;20072;-69
2022/09/25 05:43:32;;;;;;;10.15;4.20;;;10.20;99.90;;;;;;5013016;28;20048;-69
2022/09/25 05:45:58;;;;;;;9.68;3.90;;;10.10;99.90;;;;;;5012964;28;20029;-69
2022/09/25 05:48:25;;;;;;;13.32;4.32;;;10.40;99.90;;;;;;5014089;28;20014;-69
2022/09/25 05:50:55;;;;;;;16.05;4.00;;;10.60;99.90;;;;;;5012869;28;20030;-69
2022/09/25 05:53:22;;;;;;;18.17;4.30;;;10.70;99.90;;;;;;5013844;28;20104;-70
2022/09/25 05:55:52;;;;;;;15.88;3.90;;;10.80;99.90;;;;;;5014078;28;20017;-69
2022/09/25 05:58:18;;;;;;;9.27;4.25;;;10.80;99.90;;;;;;5013945;28;20033;-68
2022/09/25 06:00:44;;;;;;;11.60;3.75;;;10.40;99.90;;;;;;5014182;28;20493;-69
2022/09/25 06:03:10;;;;;;;8.43;3.70;;;10.30;99.90;;;;;;5013668;28;20053;-69
2022/09/25 06:05:39;;;;;;;13.40;3.75;;;10.30;99.90;;;;;;5013586;28;20030;-69
2022/09/25 06:08:05;;;;;;;12.48;4.25;;;10.10;99.90;;;;;;5012519;28;20065;-69
2022/09/25 06:10:31;;;;;;;12.10;3.90;;;10.10;99.90;;;;;;5013918;28;20025;-69
2022/09/25 06:12:59;;;;;;;13.60;3.75;;;10.30;99.90;;;;;;5013805;28;20103;-69
2022/09/25 06:15:34;;;;;;;8.63;3.90;;;10.40;99.90;;;;;;5012555;28;20405;-69
2022/09/25 06:18:00;;;;;;;7.63;3.83;;;10.30;99.90;;;;;;5013296;28;20021;-69
2022/09/25 06:20:26;;;;;;;9.85;4.40;;;10.40;99.90;;;;;;5013468;28;20430;-69
2022/09/25 06:22:53;;;;;;;18.48;5.40;;;10.50;99.90;;;;;;5013530;28;20029;-68
2022/09/25 06:25:21;;;;;;;19.65;5.15;;;10.50;99.90;;;;;;5013353;28;20410;-68
2022/09/25 06:27:47;;;;;;;18.58;6.78;;;10.50;99.90;;;;;;5013482;28;20475;-69
2022/09/25 06:30:13;;;;;;;10.40;5.82;;;10.90;99.90;;;;;;5013503;28;20041;-68
2022/09/25 06:32:39;;;;;;;16.08;6.63;;;11.20;99.90;;;;;;5011704;28;20030;-69
2022/09/25 06:35:05;;;;;;;17.70;5.45;;;11.60;99.90;;;;;;5013372;28;20026;-68
2022/09/25 06:37:31;;;;;;;14.85;5.47;;;11.60;99.90;;;;;;5013513;28;20095;-69
2022/09/25 06:39:56;;;;;;;12.98;5.30;;;11.40;99.90;;;;;;5013242;28;20113;-68
2022/09/25 06:42:22;;;;;;;14.10;5.55;;;11.30;99.90;;;;;;5013613;28;20109;-68
2022/09/25 06:44:48;;;;;;;18.42;5.30;;;11.20;99.90;;;;;;5012650;28;20494;-68
2022/09/25 06:47:13;;;;;;;10.93;4.68;;;11.20;99.90;;;;;;5013033;28;20029;-68
2022/09/25 06:49:39;;;;;;;21.20;5.55;;;11.30;99.90;;;;;;5013168;28;20034;-68
2022/09/25 06:52:05;;;;;;;13.95;5.30;;;11.60;99.90;;;;;;5013344;28;20117;-69
2022/09/25 06:54:31;;;;;;;10.82;5.85;;;11.70;99.90;;;;;;5012989;28;20126;-68
2022/09/25 06:56:57;;;;;;;13.68;5.50;;;12.00;99.90;;;;;;5008883;28;20021;-68
2022/09/25 06:59:24;;;;;;;13.68;5.93;;;12.30;99.90;;;;;;5010673;28;20026;-68
2022/09/25 07:01:50;;;;;;;11.88;6.10;;;12.50;99.90;;;;;;5006462;28;20120;-69
2022/09/25 07:04:17;;;;;;;11.20;5.10;;;12.40;99.90;;;;;;5015793;28;20089;-64
2022/09/25 07:06:43;;;;;;;10.50;5.03;;;12.40;99.90;;;;;;5022319;28;20512;-64
2022/09/25 07:09:09;;;;;;;16.20;4.90;;;12.50;99.90;;;;;;5007317;28;20049;-64
2022/09/25 07:11:35;;;;;;;23.42;5.72;;;12.40;99.90;;;;;;5007259;28;20522;-64
2022/09/25 07:14:01;;;;;;;14.95;5.75;;;12.50;99.90;;;;;;5011019;28;20038;-65
2022/09/25 07:16:29;;;;;;;12.57;5.60;;;12.50;99.90;;;;;;4999306;28;20025;-64
2022/09/25 07:19:02;;;;;;;11.88;4.93;;;12.40;99.90;;;;;;5006500;28;20037;-64
2022/09/25 07:21:30;;;;;;;17.00;5.20;;;12.40;99.90;;;;;;5009876;28;20029;-64
2022/09/25 07:23:57;;;;;;;13.82;5.75;;;12.50;99.90;;;;;;5000682;28;20050;-64
2022/09/25 07:26:28;;;;;;;16.85;5.07;;;12.60;99.90;;;;;;4999306;28;20046;-64
2022/09/25 07:29:01;;;;;;;10.73;3.97;;;13.00;99.90;;;;;;4997144;28;20045;-64
2022/09/25 07:31:31;;;;;;;7.22;3.10;;;13.10;99.90;;;;;;4997981;28;20042;-65
2022/09/25 07:33:59;;;;;;;10.57;3.30;;;13.20;99.90;;;;;;4994874;28;20066;-64
2022/09/25 07:36:25;;;;;;;8.65;2.80;;;13.30;99.90;;;;;;5015829;28;20052;-64
2022/09/25 07:38:51;;;;;;;10.00;3.03;;;13.30;99.90;;;;;;5016141;28;20013;-64
2022/09/25 07:41:19;;;;;;;11.85;3.28;;;13.50;99.90;;;;;;4999340;28;20379;-65
2022/09/25 07:43:45;;;;;;;11.00;3.40;;;13.80;99.90;;;;;;4999089;28;20065;-68
2022/09/25 07:46:11;;;;;;;12.55;3.33;;;13.80;99.90;;;;;;5002778;28;20482;-68
2022/09/25 07:48:37;;;;;;;9.52;2.50;;;14.10;99.90;;;;;;5003750;28;20076;-70
2022/09/25 07:51:06;;;;;;;13.48;2.70;;;14.10;99.90;;;;;;5012849;28;20429;-69
2022/09/25 07:53:31;;;;;;;11.68;2.53;;;14.20;99.90;;;;;;5007528;28;20015;-68
2022/09/25 07:55:58;;;;;;;10.70;2.80;;;14.40;99.90;;;;;;4999815;28;20156;-69
2022/09/25 07:58:25;;;;;;;11.55;2.47;;;14.50;99.90;;;;;;5004299;28;20037;-69
2022/09/25 08:00:53;;;;;;;15.90;2.90;;;14.80;99.90;;;;;;5010297;28;20053;-68
2022/09/25 08:03:20;;;;;;;13.13;2.55;;;15.30;99.90;;;;;;5012198;28;20095;-68
2022/09/25 08:05:46;;;;;;;9.93;1.60;;;15.30;99.90;;;;;;5005884;28;20034;-69
2022/09/25 08:08:12;;;;;;;12.40;2.25;;;15.20;99.90;;;;;;5004997;28;20379;-68
2022/09/25 08:10:38;;;;;;;8.52;1.48;;;14.90;99.90;;;;;;5002266;28;20034;-68
2022/09/25 08:13:03;;;;;;;5.57;1.67;;;15.00;99.90;;;;;;5013040;28;20022;-68
2022/09/25 08:15:29;;;;;;;12.50;1.75;;;14.90;99.90;;;;;;5009873;28;20044;-69
2022/09/25 08:17:55;;;;;;;9.15;2.25;;;15.10;99.90;;;;;;5004389;28;20105;-68
2022/09/25 08:20:21;;;;;;;14.45;2.20;;;14.90;99.90;;;;;;5004025;28;20486;-69
2022/09/25 08:22:46;;;;;;;14.88;2.65;;;14.90;99.90;;;;;;5012561;28;20021;-69
2022/09/25 08:25:13;;;;;;;8.57;2.55;;;14.90;99.90;;;;;;5011903;28;20526;-69
2022/09/25 08:27:42;;;;;;;5.57;1.90;;;14.80;99.90;;;;;;4995193;28;20026;-68
2022/09/25 08:30:10;;;;;;;8.70;2.35;;;15.00;99.90;;;;;;4997418;28;20033;-69
2022/09/25 08:32:36;;;;;;;7.93;2.22;;;15.00;99.90;;;;;;5007465;28;20045;-69
2022/09/25 08:35:03;;;;;;;15.40;2.33;;;15.20;99.90;;;;;;5012839;28;20356;-70
2022/09/25 08:37:30;;;;;;;8.63;2.15;;;15.10;99.90;;;;;;5010888;28;20038;-70
2022/09/25 08:39:58;;;;;;;14.35;2.00;;;15.20;99.90;;;;;;4997841;28;20125;-69
2022/09/25 08:42:43;;;;;;;8.68;2.00;;;15.50;99.90;;;;;;4998310;28;20105;-69
2022/09/25 08:51:08;;;;;;;9.50;2.20;;;15.50;99.90;;;;;;5016817;28;20040;-68
2022/09/25 08:53:35;;;;;;;11.98;2.80;;;15.40;99.90;;;;;;5012701;28;20040;-68
2022/09/25 08:56:18;;;;;;;11.55;2.15;;;15.80;99.90;;;;;;5011777;28;20029;-67
2022/09/25 08:58:53;;;;;;;5.15;1.75;;;16.10;99.90;;;;;;5013945;28;20388;-68
2022/09/25 09:01:41;;;;;;;8.63;2.35;;;16.20;99.90;;;;;;5014807;28;20037;-68
2022/09/25 09:04:18;;;;;;;10.70;1.98;;;15.80;99.90;;;;;;5018201;28;20050;-68
2022/09/25 09:06:45;;;;;;;8.10;2.45;;;15.80;99.90;;;;;;5016729;28;20033;-68
2022/09/25 09:09:16;;;;;;;9.80;2.33;;;16.10;99.90;;;;;;5023008;28;20038;-68
2022/09/25 09:12:02;;;;;;;8.23;2.47;;;16.20;99.90;;;;;;5017814;28;20029;-68
2022/09/25 09:14:30;;;;;;;7.45;2.30;;;16.40;99.90;;;;;;5008631;28;20370;-68
2022/09/25 09:17:02;;;;;;;14.43;2.58;;;16.30;99.90;;;;;;5017957;28;20064;-68
2022/09/25 09:19:28;;;;;;;7.38;2.10;;;16.30;99.90;;;;;;5016376;28;20030;-69
2022/09/25 09:22:09;;;;;;;4.53;1.42;;;16.60;99.90;;;;;;5015844;28;20378;-68
2022/09/25 09:24:54;;;;;;;8.52;1.73;;;16.40;99.90;;;;;;5010816;28;20045;-69
2022/09/25 09:27:37;;;;;;;9.82;1.50;;;16.80;99.90;;;;;;5010670;28;20105;-67
2022/09/25 09:30:13;;;;;;;10.18;1.98;;;17.50;99.90;;;;;;5014088;28;20029;-68
2022/09/25 09:32:56;;;;;;;12.07;2.30;;;17.60;99.90;;;;;;5013470;28;20141;-68
2022/09/25 09:35:37;;;;;;;10.00;1.60;;;17.80;99.90;;;;;;5012542;28;20061;-68
2022/09/25 09:38:13;;;;;;;12.57;1.80;;;17.70;99.90;;;;;;5013845;28;20026;-68
2022/09/25 09:41:15;;;;;;;7.18;1.55;;;17.40;99.90;;;;;;5013114;28;20030;-67
2022/09/25 09:44:12;;;;;;;11.87;2.53;;;17.20;99.90;;;;;;5029157;28;20136;-69
2022/09/25 09:46:44;;;;;;;10.57;1.48;;;17.80;99.90;;;;;;5007431;28;20280;-68
2022/09/25 09:49:20;;;;;;;4.05;1.02;;;17.50;99.90;;;;;;5004366;28;20045;-68
2022/09/25 09:52:15;;;;;;;2.88;1.10;;;17.20;99.90;;;;;;5017756;28;20026;-68
2022/09/25 09:54:45;;;;;;;3.60;1.30;;;16.70;99.90;;;;;;5015589;28;20380;-69
2022/09/25 09:57:21;;;;;;;3.60;1.33;;;16.80;99.90;;;;;;5010184;28;20100;-68
2022/09/25 10:00:01;;;;;;;3.38;0.90;;;17.10;99.90;;;;;;5009089;28;20022;-68
2022/09/25 10:02:41;;;;;;;5.38;1.15;;;17.40;99.90;;;;;;5008554;28;20034;-68
2022/09/25 10:05:27;;;;;;;7.25;1.08;;;17.30;99.90;;;;;;5004983;28;20491;-69
2022/09/25 10:07:54;;;;;;;3.80;0.80;;;17.80;99.90;;;;;;4993395;28;20117;-69
2022/09/25 10:10:32;;;;;;;1.85;0.80;;;18.20;99.90;;;;;;4998206;28;20498;-69
2022/09/25 10:13:05;;;;;;;4.13;0.63;;;18.40;99.90;;;;;;5003929;28;20041;-70
2022/09/25 10:15:47;;;;;;;3.72;0.63;;;18.40;99.90;;;;;;5011991;28;20064;-70
2022/09/25 10:18:14;;;;;;;4.57;1.20;;;17.70;99.90;;;;;;5015788;28;20026;-70
2022/09/25 10:20:52;;;;;;;6.05;1.38;;;17.30;99.90;;;;;;5014981;28;20033;-70
2022/09/25 10:23:34;;;;;;;5.65;0.80;;;17.50;99.90;;;;;;5013237;28;20089;-69
2022/09/25 10:26:00;;;;;;;;;;;17.40;99.90;;;;;;5012358;28;20038;-69
2022/09/25 10:28:33;;;;;;;3.42;0.70;;;17.50;99.90;;;;;;5022524;28;19967;-65
2022/09/25 10:31:01;;;;;;;4.72;0.90;;;17.60;99.90;;;;;;5013405;28;20034;-70
2022/09/25 10:33:29;;;;;;;3.40;1.13;;;17.90;99.90;;;;;;5013224;28;20037;-70
2022/09/25 10:35:55;;;;;;;5.10;1.17;;;18.10;99.90;;;;;;5013278;28;20036;-70
2022/09/25 10:38:40;;;;;;;5.32;1.20;;;17.80;99.90;;;;;;5012062;28;20093;-70
2022/09/25 10:41:20;;;;;;;1.40;0.60;;;17.80;99.90;;;;;;5013227;28;20034;-70
2022/09/25 10:43:54;;;;;;;4.40;1.25;;;18.30;99.90;;;;;;5000725;28;20447;-70
2022/09/25 10:52:07;;;;;;;3.78;0.90;;;17.60;99.90;;;;;;5013177;28;20112;-70
2022/09/25 10:54:33;;;;;;;3.97;0.70;;;17.20;99.90;;;;;;5011698;28;20017;-70
2022/09/25 10:56:59;;;;;;;3.63;0.75;;;17.00;99.90;;;;;;5012902;28;20038;-69
2022/09/25 10:59:27;;;;;;;3.00;0.82;;;17.00;99.90;;;;;;5012839;28;20034;-70
2022/09/25 11:01:54;;;;;;;5.18;0.90;;;17.80;99.90;;;;;;5006109;28;20041;-70
2022/09/25 11:04:33;;;;;;;1.90;0.60;;;18.70;99.90;;;;;;5009672;28;20112;-70
2022/09/25 11:07:03;;;;;;;1.75;0.90;;;19.10;99.90;;;;;;4991423;28;20046;-71
2022/09/25 11:09:31;;;;;;;4.25;0.90;;;19.90;99.90;;;;;;4998911;28;20054;-70
2022/09/25 11:12:26;;;;;;;1.92;0.60;;;19.90;99.40;;;;;;5009413;28;20105;-70
2022/09/25 11:15:00;;;;;;;3.30;0.60;;;18.80;99.90;;;;;;5005586;28;20095;-70
2022/09/25 11:17:38;;;;;;;2.70;0.60;;;18.50;99.90;;;;;;5012657;28;20040;-70
2022/09/25 11:20:28;;;;;;;2.47;0.60;;;18.50;99.90;;;;;;5011580;28;20057;-70
2022/09/25 11:23:15;;;;;;;4.30;0.90;;;18.30;99.90;;;;;;5012401;28;20041;-70
2022/09/25 11:26:13;;;;;;;1.20;0.68;;;18.60;99.90;;;;;;5012592;28;20134;-70
2022/09/25 11:28:48;;;;;;;4.47;0.70;;;18.80;99.90;;;;;;5012566;28;20030;-70
2022/09/25 11:31:53;;;;;;;2.05;0.52;;;18.50;99.90;;;;;;5012612;28;20061;-70
2022/09/25 11:35:04;;;;;;;3.78;0.85;;;18.20;99.90;;;;;;5010382;28;20497;-71
2022/09/25 11:37:41;;;;;;;1.55;0.60;;;18.70;99.90;;;;;;4992045;28;20436;-70
2022/09/25 11:43:29;;;;;;;3.33;0.55;;;21.00;97.70;;;;;;5012480;28;20034;-70
2022/09/25 11:46:01;;;;;;;3.13;1.10;;;21.20;97.80;;;;;;5012581;28;20135;-71
2022/09/25 11:48:53;;;;;;;2.03;0.85;;;22.00;97.40;;;;;;5012538;28;20018;-71
2022/09/25 11:51:27;;;;;;;2.83;1.08;;;23.90;95.10;;;;;;5012270;28;20508;-71
2022/09/25 11:54:05;;;;;;;2.97;1.00;;;23.30;95.20;;;;;;5012711;28;20426;-71
2022/09/25 11:56:44;;;;;;;3.22;1.02;;;23.20;94.70;;;;;;5011967;28;20121;-71
2022/09/25 11:59:49;;;;;;;2.58;0.80;;;24.20;93.70;;;;;;5012600;28;20121;-71
2022/09/25 12:02:30;;;;;;;3.28;0.85;;;24.30;92.10;;;;;;5012510;28;20030;-71
2022/09/25 12:05:33;;;;;;;4.13;1.02;;;23.10;93.10;;;;;;5012403;28;20446;-71
2022/09/25 12:08:31;;;;;;;2.05;0.60;;;23.20;93.40;;;;;;5003801;28;20029;-71
2022/09/25 12:11:27;;;;;;;1.95;0.70;;;22.40;93.50;;;;;;5010895;28;20026;-71
2022/09/25 12:14:05;;;;;;;2.85;0.60;;;22.80;93.00;;;;;;5009484;28;20042;-70
2022/09/25 12:16:56;;;;;;;3.65;0.50;;;23.00;93.30;;;;;;5012218;28;20049;-71
2022/09/25 12:19:28;;;;;;;;;;;23.00;93.60;;;;;;4999869;28;20121;-70
2022/09/25 12:22:09;;;;;;;4.85;0.75;;;23.20;93.50;;;;;;5012407;28;19909;-71
2022/09/25 12:24:59;;;;;;;1.57;0.57;;;23.10;93.20;;;;;;4999138;28;20185;-70
2022/09/25 12:27:43;;;;;;;1.20;0.47;;;23.50;93.30;;;;;;5011050;28;20034;-70
2022/09/25 12:30:22;;;;;;;0.75;0.43;;;23.70;93.70;;;;;;5015432;28;20084;-71
2022/09/25 12:33:15;;;;;;;2.67;0.50;;;23.70;93.30;;;;;;5015722;28;20036;-70
2022/09/25 12:35:56;;;;;;;1.45;0.32;;;23.50;91.90;;;;;;5014541;28;20036;-71
2022/09/25 12:38:34;;;;;;;1.65;0.28;;;23.20;91.60;;;;;;5014252;28;20068;-67
2022/09/25 12:41:07;;;;;;;4.88;0.80;;;21.70;93.10;;;;;;5015679;28;20029;-70
2022/09/25 12:43:41;;;;;;;1.92;0.82;;;20.90;94.40;;;;;;5015262;28;20040;-70
2022/09/25 12:46:09;;;;;;;2.63;0.47;;;21.30;96.70;;;;;;5013976;28;20038;-70
2022/09/25 12:49:06;;;;;;;3.88;0.57;;;21.60;94.90;;;;;;5015324;28;20068;-70
2022/09/25 12:51:54;;;;;;;1.55;0.35;;;22.70;91.70;;;;;;5015117;28;20437;-70
2022/09/25 12:54:31;;;;;;;1.65;0.60;;;23.30;92.20;;;;;;5015312;28;20501;-70
2022/09/25 12:57:11;;;;;;;1.65;0.43;;;22.90;92.40;;;;;;5014992;28;20037;-70
2022/09/25 12:59:43;;;;;;;3.65;0.70;;;22.40;93.00;;;;;;5014872;28;20034;-70
2022/09/25 13:02:25;;;;;;;2.83;0.50;;;22.80;92.90;;;;;;5014588;28;20042;-71
2022/09/25 13:05:04;;;;;;;2.55;0.70;;;24.50;91.20;;;;;;5014889;28;20040;-70
2022/09/25 13:07:49;;;;;;;2.05;0.60;;;24.90;90.20;;;;;;5002296;28;20026;-69
2022/09/25 13:10:39;;;;;;;4.05;0.60;;;26.30;87.70;;;;;;5014977;28;20069;-70
2022/09/25 13:13:18;;;;;;;2.60;0.85;;;25.90;88.50;;;;;;5014956;28;20117;-70
2022/09/25 13:15:53;;;;;;;2.13;0.70;;;25.00;87.70;;;;;;5014848;28;20026;-69
2022/09/25 13:18:21;;;;;;;2.92;0.77;;;23.90;90.30;;;;;;5014240;28;20397;-70
2022/09/25 13:20:55;;;;;;;2.13;0.60;;;24.60;90.20;;;;;;5014735;28;20096;-71
2022/09/25 13:23:24;;;;;;;2.67;0.80;;;26.50;88.70;;;;;;5014676;28;20097;-70
2022/09/25 13:25:58;;;;;;;2.30;0.50;;;27.50;85.90;;;;;;5014694;28;20017;-70
2022/09/25 13:28:35;;;;;;;3.58;0.88;;;25.80;86.80;;;;;;5014534;28;20025;-71
2022/09/25 13:31:11;;;;;;;2.55;0.50;;;25.90;88.60;;;;;;5014433;28;20061;-70
2022/09/25 13:34:03;;;;;;;1.45;0.73;;;26.30;88.20;;;;;;5012022;28;20049;-71
2022/09/25 13:36:55;;;;;;;3.35;0.70;;;27.50;86.50;;;;;;5012070;28;20160;-68
2022/09/25 13:42:23;;;;;;;2.25;0.60;;;28.70;81.80;;;;;;5003216;28;20033;-71